createdAt,value
2022-12-04T00:00:01.759Z,8.43
2022-12-04T00:02:31.249Z,7.53
2022-12-04T00:04:58.679Z,7.63
2022-12-04T00:07:25.432Z,7.88
2022-12-04T00:09:52.355Z,7.13
2022-12-04T00:12:19.017Z,5.78
2022-12-04T00:15:23.295Z,5.75
2022-12-04T00:17:32.171Z,6.15
2022-12-04T00:19:58.736Z,6.38
2022-12-04T00:22:25.305Z,6.75
2022-12-04T00:24:51.935Z,8.27
2022-12-04T00:27:18.631Z,9.38
2022-12-04T00:29:45.239Z,12.75
2022-12-04T00:32:11.776Z,9.05
2022-12-04T00:34:38.349Z,6.88
2022-12-04T00:37:04.971Z,6.75
2022-12-04T00:39:31.575Z,6.13
2022-12-04T00:41:58.155Z,5.80
2022-12-04T00:44:24.918Z,6.00
2022-12-04T00:46:51.473Z,6.97
2022-12-04T00:49:18.112Z,6.50
2022-12-04T00:51:44.649Z,6.18
2022-12-04T00:54:11.207Z,6.50
2022-12-04T00:56:37.821Z,6.00
2022-12-04T00:59:04.460Z,6.82
2022-12-04T01:01:31.288Z,6.55
2022-12-04T01:03:58.213Z,5.68
2022-12-04T01:06:28.319Z,5.82
2022-12-04T01:08:56.199Z,5.32
2022-12-04T01:11:24.500Z,6.47
2022-12-04T01:13:51.262Z,5.72
2022-12-04T01:16:21.485Z,5.55
2022-12-04T01:18:48.253Z,5.70
2022-12-04T01:21:15.138Z,6.50
2022-12-04T01:23:41.739Z,5.93
2022-12-04T01:26:08.611Z,5.72
2022-12-04T01:28:35.208Z,5.90
2022-12-04T01:31:01.840Z,7.13
2022-12-04T01:33:29.567Z,9.90
2022-12-04T01:35:58.308Z,17.27
2022-12-04T01:38:25.752Z,21.55
2022-12-04T01:40:52.945Z,17.42
2022-12-04T01:43:20.594Z,9.13
2022-12-04T01:45:55.664Z,6.60
2022-12-04T01:48:35.456Z,6.75
2022-12-04T01:51:08.275Z,6.15
2022-12-04T01:53:38.632Z,5.72
2022-12-04T01:56:06.463Z,5.72
2022-12-04T01:58:38.836Z,6.15
2022-12-04T02:01:09.033Z,6.18
2022-12-04T02:03:36.754Z,6.20
2022-12-04T02:06:03.473Z,8.40
2022-12-04T02:08:30.632Z,6.20
2022-12-04T02:11:13.041Z,6.00
2022-12-04T02:14:12.893Z,5.63
2022-12-04T02:16:46.866Z,5.82
2022-12-04T02:19:38.061Z,5.68
2022-12-04T02:22:20.912Z,5.63
2022-12-04T02:25:04.726Z,6.28
2022-12-04T02:27:40.256Z,5.70
2022-12-04T02:30:13.059Z,5.60
2022-12-04T02:32:45.546Z,5.78
2022-12-04T02:35:27.907Z,5.88
2022-12-04T02:38:21.233Z,5.65
2022-12-04T02:40:56.931Z,5.90
2022-12-04T02:43:34.794Z,5.28
2022-12-04T02:46:20.475Z,5.80
2022-12-04T02:48:50.137Z,4.97
2022-12-04T02:51:20.260Z,5.38
2022-12-04T02:53:52.931Z,5.53
2022-12-04T02:56:30.554Z,5.47
2022-12-04T02:59:05.308Z,5.30
2022-12-04T03:01:34.929Z,5.50
2022-12-04T03:04:05.580Z,4.53
2022-12-04T03:06:38.313Z,5.53
2022-12-04T03:09:11.076Z,5.40
2022-12-04T03:11:40.285Z,5.25
2022-12-04T03:14:22.215Z,5.15
2022-12-04T03:16:52.318Z,5.15
2022-12-04T03:19:23.505Z,5.28
2022-12-04T03:21:58.212Z,5.20
2022-12-04T03:24:28.249Z,5.45
2022-12-04T03:27:32.760Z,4.65
2022-12-04T03:30:09.133Z,5.13
2022-12-04T03:32:46.395Z,5.43
2022-12-04T03:35:38.901Z,4.68
2022-12-04T03:38:25.686Z,5.28
2022-12-04T03:41:24.858Z,4.50
2022-12-04T03:44:15.662Z,4.47
2022-12-04T03:46:54.839Z,4.87
2022-12-04T03:49:40.517Z,5.05
2022-12-04T03:52:24.673Z,5.10
2022-12-04T03:55:04.224Z,4.90
2022-12-04T03:57:37.328Z,4.82
2022-12-04T04:00:23.026Z,4.80
2022-12-04T04:03:01.089Z,4.55
2022-12-04T04:05:30.108Z,5.13
2022-12-04T04:08:19.799Z,4.68
2022-12-04T04:10:47.663Z,4.55
2022-12-04T04:13:39.388Z,5.15
2022-12-04T04:19:15.321Z,4.95
2022-12-04T04:22:02.842Z,4.80
2022-12-04T04:24:46.892Z,5.10
2022-12-04T04:27:13.771Z,4.50
2022-12-04T04:29:42.433Z,5.15
2022-12-04T04:32:41.027Z,4.82
2022-12-04T04:35:29.908Z,5.00
2022-12-04T04:41:00.087Z,4.78
2022-12-04T04:43:37.465Z,4.88
2022-12-04T04:46:04.109Z,5.20
2022-12-04T04:48:53.547Z,6.03
2022-12-04T04:51:20.649Z,5.82
2022-12-04T04:53:53.803Z,5.53
2022-12-04T04:56:21.213Z,5.40
2022-12-04T04:58:47.880Z,5.28
2022-12-04T05:01:19.060Z,4.93
2022-12-04T05:03:46.075Z,5.68
2022-12-04T05:06:12.785Z,5.35
2022-12-04T05:08:39.524Z,5.03
2022-12-04T05:11:06.886Z,5.00
2022-12-04T05:13:33.605Z,5.30
2022-12-04T05:16:03.013Z,5.20
2022-12-04T05:18:30.998Z,5.03
2022-12-04T05:20:58.069Z,5.25
2022-12-04T05:23:25.708Z,4.75
2022-12-04T05:25:59.476Z,5.05
2022-12-04T05:28:26.101Z,5.25
2022-12-04T05:30:57.334Z,4.68
2022-12-04T05:33:24.248Z,5.03
2022-12-04T05:35:58.018Z,4.85
2022-12-04T05:38:24.604Z,5.15
2022-12-04T05:40:51.199Z,5.25
2022-12-04T05:43:17.820Z,5.18
2022-12-04T05:45:44.406Z,5.97
2022-12-04T05:48:11.103Z,6.65
2022-12-04T05:50:40.554Z,6.25
2022-12-04T05:53:07.081Z,6.03
2022-12-04T05:55:33.946Z,5.82
2022-12-04T05:58:00.600Z,6.15
2022-12-04T06:00:28.568Z,5.68
2022-12-04T06:02:55.242Z,5.68
2022-12-04T06:05:21.928Z,6.50
2022-12-04T06:07:48.594Z,6.78
2022-12-04T06:10:15.289Z,6.32
2022-12-04T06:12:41.931Z,5.65
2022-12-04T06:15:08.780Z,5.43
2022-12-04T06:17:35.344Z,5.85
2022-12-04T06:20:07.917Z,5.85
2022-12-04T06:22:37.623Z,5.57
2022-12-04T06:25:04.451Z,5.50
2022-12-04T06:27:31.175Z,5.68
2022-12-04T06:29:58.921Z,5.93
2022-12-04T06:32:26.148Z,5.55
2022-12-04T06:34:54.158Z,5.45
2022-12-04T06:37:23.308Z,5.50
2022-12-04T06:39:50.210Z,5.85
2022-12-04T06:42:16.840Z,5.78
2022-12-04T06:44:43.446Z,6.03
2022-12-04T06:47:10.088Z,5.38
2022-12-04T06:49:36.651Z,5.80
2022-12-04T06:52:03.868Z,5.72
2022-12-04T06:54:30.553Z,5.43
2022-12-04T06:56:57.149Z,5.63
2022-12-04T06:59:23.842Z,5.47
2022-12-04T07:01:50.677Z,5.63
2022-12-04T07:04:17.470Z,5.50
2022-12-04T07:06:44.037Z,5.97
2022-12-04T07:09:14.778Z,6.00
2022-12-04T07:11:43.195Z,6.40
2022-12-04T07:14:11.156Z,5.90
2022-12-04T07:16:41.716Z,5.95
2022-12-04T07:19:13.688Z,6.30
2022-12-04T07:21:41.467Z,7.22
2022-12-04T07:24:15.075Z,6.68
2022-12-04T07:26:41.700Z,6.35
2022-12-04T07:29:08.464Z,6.55
2022-12-04T07:31:35.153Z,6.55
2022-12-04T07:34:02.812Z,6.93
2022-12-04T07:36:29.375Z,6.70
2022-12-04T07:38:56.615Z,6.40
2022-12-04T07:41:26.168Z,6.63
2022-12-04T07:43:55.751Z,7.03
2022-12-04T07:46:25.782Z,7.65
2022-12-04T07:48:52.739Z,8.00
2022-12-04T07:51:22.223Z,7.70
2022-12-04T07:53:49.340Z,7.75
2022-12-04T07:56:16.712Z,8.88
2022-12-04T07:58:43.983Z,9.50
2022-12-04T08:01:17.924Z,9.23
2022-12-04T08:03:48.388Z,10.55
2022-12-04T08:06:19.756Z,10.40
2022-12-04T08:08:46.937Z,9.68
2022-12-04T08:11:17.604Z,9.40
2022-12-04T08:13:44.715Z,9.75
2022-12-04T08:16:15.477Z,10.20
2022-12-04T08:18:51.432Z,10.25
2022-12-04T08:21:21.984Z,9.48
2022-12-04T08:23:51.104Z,10.20
2022-12-04T08:26:18.977Z,10.35
2022-12-04T08:28:45.615Z,9.38
2022-12-04T08:31:24.121Z,9.90
2022-12-04T08:33:53.632Z,10.90
2022-12-04T08:36:22.287Z,10.23
2022-12-04T08:38:49.227Z,10.13
2022-12-04T08:41:17.989Z,9.02
2022-12-04T08:43:47.232Z,10.68
2022-12-04T08:46:16.298Z,13.27
2022-12-04T08:48:43.515Z,9.80
2022-12-04T08:51:15.880Z,10.88
2022-12-04T08:53:42.490Z,11.60
2022-12-04T08:56:09.563Z,8.20
2022-12-04T08:58:36.336Z,9.55
2022-12-04T09:01:08.316Z,8.48
2022-12-04T09:03:35.320Z,7.85
2022-12-04T09:06:04.554Z,6.82
2022-12-04T09:08:31.973Z,7.07
2022-12-04T09:11:16.472Z,6.63
2022-12-04T09:13:44.241Z,7.65
2022-12-04T09:16:17.090Z,7.75
2022-12-04T09:18:44.163Z,8.63
2022-12-04T09:21:13.073Z,8.52
2022-12-04T09:23:40.262Z,9.13
2022-12-04T09:26:21.538Z,6.38
2022-12-04T09:28:49.036Z,15.00
2022-12-04T09:31:16.121Z,6.18
2022-12-04T09:33:43.207Z,5.60
2022-12-04T09:36:15.850Z,6.90
2022-12-04T09:38:44.549Z,6.05
2022-12-04T09:41:29.797Z,7.57
2022-12-04T09:44:18.847Z,5.57
2022-12-04T09:46:59.250Z,5.15
2022-12-04T09:49:41.139Z,5.00
2022-12-04T09:52:22.147Z,5.50
2022-12-04T09:54:52.292Z,5.25
2022-12-04T09:57:38.220Z,4.72
2022-12-04T10:00:13.757Z,4.70
2022-12-04T10:02:42.801Z,4.97
2022-12-04T10:05:41.185Z,5.20
2022-12-04T10:08:38.407Z,5.13
2022-12-04T10:11:21.919Z,4.63
2022-12-04T10:14:02.939Z,4.63
2022-12-04T10:16:54.801Z,7.28
2022-12-04T10:19:24.362Z,6.50
2022-12-04T10:22:17.005Z,6.47
2022-12-04T10:24:45.994Z,6.43
2022-12-04T10:27:23.805Z,6.43
2022-12-04T10:29:55.897Z,6.25
2022-12-04T10:32:30.485Z,5.55
2022-12-04T10:35:15.314Z,6.45
2022-12-04T10:37:44.525Z,5.43
2022-12-04T10:40:18.429Z,4.88
2022-12-04T10:42:55.496Z,5.63
2022-12-04T10:45:23.740Z,5.25
2022-12-04T10:47:52.380Z,4.90
2022-12-04T10:50:26.726Z,4.85
2022-12-04T10:52:53.318Z,5.03
2022-12-04T10:55:34.303Z,13.52
2022-12-04T10:58:02.709Z,7.30
2022-12-04T11:00:34.822Z,8.90
2022-12-04T11:03:19.886Z,18.70
2022-12-04T11:05:55.448Z,16.48
2022-12-04T11:08:30.938Z,8.85
2022-12-04T11:11:01.364Z,7.40
2022-12-04T11:13:29.487Z,7.78
2022-12-04T11:16:06.504Z,10.88
2022-12-04T11:18:47.175Z,26.65
2022-12-04T11:21:23.361Z,8.15
2022-12-04T11:23:52.277Z,7.47
2022-12-04T11:26:38.434Z,8.85
2022-12-04T11:29:13.774Z,5.75
2022-12-04T11:31:40.611Z,9.30
2022-12-04T11:34:14.508Z,6.82
2022-12-04T11:36:42.107Z,6.75
2022-12-04T11:39:11.655Z,6.45
2022-12-04T11:41:41.380Z,5.75
2022-12-04T11:44:31.228Z,9.18
2022-12-04T11:47:00.174Z,5.03
2022-12-04T11:49:27.447Z,6.15
2022-12-04T11:51:56.954Z,8.50
2022-12-04T11:54:50.862Z,6.85
2022-12-04T11:57:51.671Z,7.93
2022-12-04T12:00:20.655Z,8.27
2022-12-04T12:03:06.175Z,8.48
2022-12-04T12:06:07.475Z,8.68
2022-12-04T12:08:59.461Z,6.45
2022-12-04T12:11:38.057Z,6.45
2022-12-04T12:14:17.718Z,6.97
2022-12-04T12:16:48.379Z,7.10
2022-12-04T12:19:25.816Z,6.53
2022-12-04T12:22:26.440Z,6.88
2022-12-04T12:25:17.188Z,7.32
2022-12-04T12:27:50.499Z,6.65
2022-12-04T12:30:22.546Z,5.93
2022-12-04T12:33:01.341Z,6.43
2022-12-04T12:35:38.935Z,5.93
2022-12-04T12:38:12.950Z,6.80
2022-12-04T12:40:47.534Z,6.85
2022-12-04T12:43:30.304Z,7.05
2022-12-04T12:46:18.028Z,6.25
2022-12-04T12:49:00.598Z,21.85
2022-12-04T12:51:33.644Z,9.80
2022-12-04T12:54:11.258Z,7.32
2022-12-04T12:56:47.937Z,8.38
2022-12-04T12:59:21.885Z,6.10
2022-12-04T13:04:48.872Z,8.60
2022-12-04T13:16:23.428Z,6.25
2022-12-04T13:19:13.457Z,6.68
2022-12-04T13:21:40.034Z,8.40
2022-12-04T13:24:15.882Z,8.05
2022-12-04T13:27:05.553Z,6.97
2022-12-04T13:30:02.873Z,8.20
2022-12-04T13:32:48.129Z,10.18
2022-12-04T13:35:29.847Z,8.63
2022-12-04T13:38:57.834Z,6.88
2022-12-04T13:41:27.738Z,7.78
2022-12-04T13:43:55.491Z,8.48
2022-12-04T13:46:34.181Z,7.43
2022-12-04T13:49:17.572Z,7.90
2022-12-04T13:51:46.113Z,7.32
2022-12-04T13:54:12.618Z,8.40
2022-12-04T13:57:14.519Z,6.80
2022-12-04T13:59:41.971Z,7.20
2022-12-04T14:02:35.103Z,6.93
2022-12-04T14:05:06.044Z,6.78
2022-12-04T14:07:38.529Z,7.57
2022-12-04T14:10:25.735Z,7.28
2022-12-04T14:13:01.030Z,7.50
2022-12-04T14:15:31.174Z,8.68
2022-12-04T14:18:02.636Z,9.20
2022-12-04T14:20:34.409Z,10.57
2022-12-04T14:23:26.615Z,10.55
2022-12-04T14:25:58.706Z,8.90
2022-12-04T14:28:31.415Z,8.25
2022-12-04T14:31:15.906Z,9.88
2022-12-04T14:33:49.204Z,10.55
2022-12-04T14:36:37.444Z,9.52
2022-12-04T14:39:27.839Z,11.15
2022-12-04T14:42:05.803Z,11.05
2022-12-04T14:44:32.603Z,11.38
2022-12-04T14:47:38.278Z,10.18
2022-12-04T14:50:38.573Z,8.88
2022-12-04T14:53:29.449Z,9.88
2022-12-04T14:56:20.559Z,9.95
2022-12-04T14:58:47.452Z,9.65
2022-12-04T15:01:37.176Z,12.90
2022-12-04T15:04:27.663Z,14.43
2022-12-04T15:06:59.871Z,11.65
2022-12-04T15:09:47.454Z,8.55
2022-12-04T15:12:34.378Z,9.60
2022-12-04T15:15:03.631Z,8.40
2022-12-04T15:17:33.228Z,9.40
2022-12-04T15:20:14.514Z,9.85
2022-12-04T15:22:41.310Z,9.48
2022-12-04T15:25:19.388Z,33.97
2022-12-04T15:27:55.321Z,12.32
2022-12-04T15:30:30.138Z,11.93
2022-12-04T15:32:57.077Z,9.70
2022-12-04T15:35:31.995Z,11.15
2022-12-04T15:37:59.099Z,15.48
2022-12-04T15:40:28.558Z,17.55
2022-12-04T15:43:07.058Z,37.03
2022-12-04T15:45:34.727Z,22.90
2022-12-04T15:48:01.966Z,17.08
2022-12-04T15:50:30.784Z,12.20
2022-12-04T15:53:08.387Z,12.23
2022-12-04T15:55:47.095Z,66.82
2022-12-04T15:58:20.083Z,21.67
2022-12-04T16:00:46.723Z,13.32
2022-12-04T16:03:27.065Z,12.35
2022-12-04T16:06:23.370Z,13.27
2022-12-04T16:09:12.079Z,11.60
2022-12-04T16:11:39.825Z,12.20
2022-12-04T16:14:09.256Z,13.43
2022-12-04T16:16:38.357Z,13.98
2022-12-04T16:19:29.067Z,16.70
2022-12-04T16:21:56.282Z,16.83
2022-12-04T16:24:23.452Z,14.65
2022-12-04T16:26:51.298Z,15.20
2022-12-04T16:29:18.378Z,15.88
2022-12-04T16:31:48.168Z,14.02
2022-12-04T16:34:14.951Z,13.80
2022-12-04T16:36:41.878Z,12.05
2022-12-04T16:39:08.596Z,11.88
2022-12-04T16:41:35.168Z,12.85
2022-12-04T16:44:04.236Z,12.45
2022-12-04T16:46:35.429Z,12.75
2022-12-04T16:49:07.214Z,14.73
2022-12-04T16:51:40.001Z,15.05
2022-12-04T16:54:11.526Z,15.18
2022-12-04T16:56:38.102Z,13.07
2022-12-04T16:59:08.925Z,12.88
2022-12-04T17:01:44.202Z,12.63
2022-12-04T17:04:11.214Z,15.20
2022-12-04T17:06:38.402Z,18.77
2022-12-04T17:09:05.862Z,33.10
2022-12-04T17:11:32.463Z,25.73
2022-12-04T17:13:59.091Z,18.27
2022-12-04T17:16:25.796Z,17.75
2022-12-04T17:18:52.372Z,12.07
2022-12-04T17:21:19.054Z,13.93
2022-12-04T17:23:45.652Z,14.43
2022-12-04T17:26:14.812Z,13.25
2022-12-04T17:28:43.576Z,13.60
2022-12-04T17:31:28.976Z,12.77
2022-12-04T17:33:56.569Z,13.98
2022-12-04T17:36:26.076Z,13.48
2022-12-04T17:38:57.472Z,14.65
2022-12-04T17:43:51.207Z,14.13
2022-12-04T17:46:21.550Z,13.32
2022-12-04T17:48:49.048Z,17.38
2022-12-04T17:51:18.983Z,16.55
2022-12-04T17:53:45.695Z,15.18
2022-12-04T17:56:16.126Z,14.13
2022-12-04T17:58:46.411Z,14.43
2022-12-04T18:01:16.739Z,11.88
2022-12-04T18:03:44.389Z,11.93
2022-12-04T18:06:16.780Z,12.20
2022-12-04T18:08:48.323Z,12.07
2022-12-04T18:11:18.695Z,11.60
2022-12-04T18:13:45.356Z,12.98
2022-12-04T18:16:12.492Z,14.18
2022-12-04T18:18:39.324Z,14.75
2022-12-04T18:21:11.892Z,11.70
2022-12-04T18:23:44.397Z,12.18
2022-12-04T18:26:12.814Z,9.73
2022-12-04T18:28:42.904Z,11.70
2022-12-04T18:31:09.871Z,12.30
2022-12-04T18:33:40.276Z,12.60
2022-12-04T18:36:12.009Z,23.92
2022-12-04T18:38:38.901Z,17.45
2022-12-04T18:41:07.880Z,14.98
2022-12-04T18:43:42.968Z,13.40
2022-12-04T18:46:12.498Z,12.32
2022-12-04T18:48:40.568Z,12.73
2022-12-04T18:51:40.867Z,11.20
2022-12-04T18:54:12.419Z,12.48
2022-12-04T18:56:39.856Z,12.65
2022-12-04T18:59:24.231Z,13.20
2022-12-04T19:01:51.611Z,12.15
2022-12-04T19:04:20.327Z,14.02
2022-12-04T19:06:51.275Z,12.48
2022-12-04T19:09:20.906Z,11.65
2022-12-04T19:11:48.259Z,11.63
2022-12-04T19:14:22.989Z,11.77
2022-12-04T19:16:51.153Z,11.68
2022-12-04T19:19:18.320Z,11.82
2022-12-04T19:21:45.160Z,12.43
2022-12-04T19:24:12.209Z,12.07
2022-12-04T19:26:39.817Z,14.15
2022-12-04T19:29:07.924Z,13.27
2022-12-04T19:31:37.164Z,13.15
2022-12-04T19:34:05.129Z,12.07
2022-12-04T19:36:32.761Z,12.10
2022-12-04T19:39:00.372Z,13.20
2022-12-04T19:41:37.119Z,13.98
2022-12-04T19:44:20.006Z,13.45
2022-12-04T19:46:51.006Z,12.57
2022-12-04T19:49:17.600Z,12.93
2022-12-04T19:51:44.330Z,12.80
2022-12-04T19:54:12.891Z,12.93
2022-12-04T19:56:39.623Z,11.45
2022-12-04T19:59:08.149Z,13.48
2022-12-04T20:01:35.467Z,13.60
2022-12-04T20:04:05.448Z,14.98
2022-12-04T20:06:43.226Z,15.05
2022-12-04T20:09:12.761Z,13.40
2022-12-04T20:11:39.823Z,12.80
2022-12-04T20:14:07.715Z,12.30
2022-12-04T20:16:35.464Z,12.02
2022-12-04T20:19:03.593Z,15.93
2022-12-04T20:21:31.900Z,14.32
2022-12-04T20:24:02.451Z,18.52
2022-12-04T20:26:31.959Z,27.75
2022-12-04T20:29:00.621Z,21.67
2022-12-04T20:31:39.707Z,17.40
2022-12-04T20:34:08.660Z,13.80
2022-12-04T20:36:40.882Z,14.80
2022-12-04T20:39:09.042Z,11.98
2022-12-04T20:41:36.780Z,12.02
2022-12-04T20:44:06.443Z,13.23
2022-12-04T20:46:38.538Z,12.60
2022-12-04T20:49:09.240Z,12.98
2022-12-04T20:51:38.649Z,12.00
2022-12-04T20:54:06.445Z,20.75
2022-12-04T20:56:35.384Z,15.57
2022-12-04T20:59:08.130Z,14.13
2022-12-04T21:01:35.798Z,13.20
2022-12-04T21:04:03.232Z,12.07
2022-12-04T21:06:38.150Z,11.50
2022-12-04T21:09:22.398Z,18.15
2022-12-04T21:11:54.646Z,13.98
2022-12-04T21:14:45.739Z,11.90
2022-12-04T21:17:18.260Z,11.23
2022-12-04T21:19:46.914Z,11.65
2022-12-04T21:22:14.162Z,11.38
2022-12-04T21:24:42.097Z,11.90
2022-12-04T21:27:17.182Z,12.40
2022-12-04T21:29:48.883Z,11.90
2022-12-04T21:32:19.272Z,11.85
2022-12-04T21:34:45.804Z,12.10
2022-12-04T21:37:13.169Z,12.60
2022-12-04T21:39:39.834Z,26.00
2022-12-04T21:42:25.704Z,18.90
2022-12-04T21:44:52.420Z,18.30
2022-12-04T21:47:18.984Z,17.95
2022-12-04T21:49:46.377Z,13.77
2022-12-04T21:52:13.280Z,13.60
2022-12-04T21:54:39.865Z,14.40
2022-12-04T21:57:06.444Z,14.23
2022-12-04T21:59:33.584Z,13.35
2022-12-04T22:02:00.563Z,16.58
2022-12-04T22:04:27.750Z,11.68
2022-12-04T22:06:54.332Z,10.40
2022-12-04T22:09:20.911Z,11.02
2022-12-04T22:11:47.624Z,10.85
2022-12-04T22:14:14.265Z,11.48
2022-12-04T22:16:42.897Z,10.88
2022-12-04T22:19:11.344Z,9.27
2022-12-04T22:21:37.983Z,10.63
2022-12-04T22:24:04.969Z,9.57
2022-12-04T22:26:32.341Z,9.68
2022-12-04T22:28:59.013Z,10.25
2022-12-04T22:31:28.079Z,9.93
2022-12-04T22:33:59.664Z,10.90
2022-12-04T22:36:29.107Z,10.35
2022-12-04T22:39:09.473Z,9.75
2022-12-04T22:41:37.297Z,9.80
2022-12-04T22:44:04.271Z,11.27
2022-12-04T22:46:31.002Z,10.15
2022-12-04T22:48:58.455Z,10.63
2022-12-04T22:51:25.134Z,10.45
2022-12-04T22:53:54.005Z,9.85
2022-12-04T22:56:29.283Z,10.95
2022-12-04T22:58:57.809Z,11.32
2022-12-04T23:01:27.019Z,10.88
2022-12-04T23:03:53.964Z,10.10
2022-12-04T23:06:23.807Z,11.80
2022-12-04T23:08:57.864Z,10.93
2022-12-04T23:11:25.933Z,10.82
2022-12-04T23:13:59.913Z,10.90
2022-12-04T23:16:29.192Z,10.48
2022-12-04T23:18:56.166Z,11.52
2022-12-04T23:21:23.861Z,10.48
2022-12-04T23:23:51.961Z,10.60
2022-12-04T23:26:21.320Z,9.75
2022-12-04T23:28:48.016Z,10.15
2022-12-04T23:31:15.487Z,9.80
2022-12-04T23:33:42.640Z,10.07
2022-12-04T23:36:11.302Z,9.88
2022-12-04T23:38:39.892Z,9.82
2022-12-04T23:41:13.933Z,9.93
2022-12-04T23:43:41.173Z,10.63
2022-12-04T23:46:11.524Z,9.77
2022-12-04T23:48:40.439Z,10.10
2022-12-04T23:51:08.466Z,9.98
2022-12-04T23:53:35.462Z,10.35
2022-12-04T23:56:07.492Z,9.90
2022-12-04T23:58:35.556Z,10.15
